createdAt,value
2024-02-24T00:00:36.461Z,99048.41
2024-02-24T00:03:03.255Z,99041.22
2024-02-24T00:05:30.116Z,99041.75
2024-02-24T00:07:56.852Z,99047.31
2024-02-24T00:10:23.799Z,99049.78
2024-02-24T00:12:50.521Z,99046.16
2024-02-24T00:15:17.229Z,99043.59
2024-02-24T00:17:44.153Z,99052.84
2024-02-24T00:20:12.261Z,99046.81
2024-02-24T00:22:39.170Z,99046.47
2024-02-24T00:25:06.428Z,99030.88
2024-02-24T00:27:33.148Z,99054.50
2024-02-24T00:30:00.454Z,99057.78
2024-02-24T00:32:27.367Z,99063.50
2024-02-24T00:34:54.074Z,99060.00
2024-02-24T00:37:20.765Z,99057.28
2024-02-24T00:39:47.446Z,99057.19
2024-02-24T00:42:14.121Z,99053.75
2024-02-24T00:44:40.837Z,99049.28
2024-02-24T00:47:07.570Z,99048.22
2024-02-24T00:49:34.297Z,99043.91
2024-02-24T00:52:00.973Z,99053.16
2024-02-24T00:54:27.679Z,99049.56
2024-02-24T00:56:54.360Z,99046.28
2024-02-24T00:59:21.042Z,99046.28
2024-02-24T01:01:47.975Z,99048.69
2024-02-24T01:04:14.788Z,99048.69
2024-02-24T01:06:41.600Z,99048.63
2024-02-24T01:09:08.297Z,99051.91
2024-02-24T01:11:35.205Z,99057.03
2024-02-24T01:14:02.216Z,99050.03
2024-02-24T01:16:28.970Z,99052.53
2024-02-24T01:18:55.771Z,99053.97
2024-02-24T01:21:22.778Z,99053.03
2024-02-24T01:23:49.665Z,99062.28
2024-02-24T01:26:16.447Z,99068.84
2024-02-24T01:28:43.589Z,99055.84
2024-02-24T01:31:10.716Z,99060.25
2024-02-24T01:33:37.577Z,99060.03
2024-02-24T01:36:04.665Z,99064.09
2024-02-24T01:38:31.380Z,99078.28
2024-02-24T01:40:58.133Z,99062.06
2024-02-24T01:43:30.458Z,99072.19
2024-02-24T01:45:58.012Z,99069.44
2024-02-24T01:48:24.922Z,99058.25
2024-02-24T01:50:53.110Z,99062.38
2024-02-24T01:53:21.554Z,99067.56
2024-02-24T01:55:51.143Z,99072.56
2024-02-24T01:58:22.104Z,99076.63
2024-02-24T02:00:49.002Z,99069.84
2024-02-24T02:03:15.637Z,99071.44
2024-02-24T02:05:42.560Z,99065.34
2024-02-24T02:08:09.257Z,99059.97
2024-02-24T02:10:56.425Z,99075.13
2024-02-24T02:13:24.203Z,99063.94
2024-02-24T02:15:53.044Z,99069.03
2024-02-24T02:18:20.682Z,99073.97
2024-02-24T02:20:50.979Z,99069.75
2024-02-24T02:23:17.625Z,99067.16
2024-02-24T02:25:44.547Z,99074.50
2024-02-24T02:28:11.033Z,99074.66
2024-02-24T02:30:37.549Z,99074.44
2024-02-24T02:33:06.013Z,99079.75
2024-02-24T02:35:32.844Z,99069.50
2024-02-24T02:37:59.446Z,99071.91
2024-02-24T02:40:25.964Z,99074.50
2024-02-24T02:42:52.492Z,99088.75
2024-02-24T02:45:19.013Z,99083.66
2024-02-24T02:47:45.632Z,99089.38
2024-02-24T02:50:12.238Z,99084.31
2024-02-24T02:52:38.796Z,99087.47
2024-02-24T02:55:05.680Z,99082.06
2024-02-24T02:57:32.175Z,99085.69
2024-02-24T02:59:58.756Z,99082.94
2024-02-24T03:02:25.388Z,99090.63
2024-02-24T03:04:51.986Z,99080.28
2024-02-24T03:07:18.493Z,99084.59
2024-02-24T03:09:48.620Z,99081.13
2024-02-24T03:12:15.872Z,99081.03
2024-02-24T03:14:43.444Z,99079.34
2024-02-24T03:17:10.082Z,99087.69
2024-02-24T03:19:37.183Z,99086.75
2024-02-24T03:22:03.811Z,99087.56
2024-02-24T03:24:30.353Z,99082.53
2024-02-24T03:26:56.882Z,99079.19
2024-02-24T03:29:23.393Z,99080.03
2024-02-24T03:31:49.912Z,99080.88
2024-02-24T03:34:16.435Z,99086.59
2024-02-24T03:36:43.968Z,99089.97
2024-02-24T03:39:10.464Z,99087.38
2024-02-24T03:41:37.178Z,99095.81
2024-02-24T03:44:04.003Z,99091.28
2024-02-24T03:46:30.681Z,99098.97
2024-02-24T03:48:57.421Z,99099.66
2024-02-24T03:51:24.234Z,99098.88
2024-02-24T03:53:50.959Z,99107.09
2024-02-24T03:56:17.704Z,99107.25
2024-02-24T03:58:45.286Z,99099.59
2024-02-24T04:01:12.448Z,99099.59
2024-02-24T04:03:39.208Z,99099.41
2024-02-24T04:06:06.770Z,99107.09
2024-02-24T04:08:33.588Z,99106.16
2024-02-24T04:11:01.155Z,99104.34
2024-02-24T04:13:27.883Z,99108.47
2024-02-24T04:15:54.585Z,99110.03
2024-02-24T04:18:21.586Z,99104.84
2024-02-24T04:20:48.700Z,99110.72
2024-02-24T04:23:15.728Z,99098.50
2024-02-24T04:25:42.637Z,99114.03
2024-02-24T04:28:10.074Z,99113.06
2024-02-24T04:30:38.805Z,99110.47
2024-02-24T04:33:06.148Z,99116.19
2024-02-24T04:35:33.050Z,99111.78
2024-02-24T04:37:59.764Z,99120.94
2024-02-24T04:40:26.851Z,99121.72
2024-02-24T04:42:53.676Z,99133.44
2024-02-24T04:45:20.333Z,99118.34
2024-02-24T04:47:47.113Z,99122.34
2024-02-24T04:50:13.912Z,99127.41
2024-02-24T04:52:40.614Z,99131.66
2024-02-24T04:55:07.691Z,99126.28
2024-02-24T04:57:34.381Z,99134.00
2024-02-24T05:00:01.146Z,99129.75
2024-02-24T05:02:27.867Z,99139.06
2024-02-24T05:04:54.580Z,99133.09
2024-02-24T05:07:21.332Z,99129.91
2024-02-24T05:09:48.030Z,99127.94
2024-02-24T05:12:14.782Z,99124.59
2024-02-24T05:14:41.636Z,99125.44
2024-02-24T05:17:08.994Z,99130.53
2024-02-24T05:19:36.006Z,99136.41
2024-02-24T05:22:02.702Z,99133.81
2024-02-24T05:24:29.334Z,99137.16
2024-02-24T05:26:55.897Z,99141.16
2024-02-24T05:29:22.487Z,99156.34
2024-02-24T05:31:48.989Z,99147.97
2024-02-24T05:34:15.587Z,99148.75
2024-02-24T05:36:42.224Z,99160.47
2024-02-24T05:39:08.955Z,99156.28
2024-02-24T05:41:35.574Z,99159.53
2024-02-24T05:44:02.155Z,99162.13
2024-02-24T05:46:29.540Z,99156.34
2024-02-24T05:48:56.105Z,99141.41
2024-02-24T05:51:22.925Z,99154.38
2024-02-24T05:53:49.928Z,99161.78
2024-02-24T05:56:16.959Z,99168.59
2024-02-24T05:58:43.719Z,99168.34
2024-02-24T06:01:10.392Z,99175.16
2024-02-24T06:03:37.248Z,99181.91
2024-02-24T06:06:04.137Z,99170.06
2024-02-24T06:08:30.851Z,99186.72
2024-02-24T06:10:57.368Z,99174.03
2024-02-24T06:13:23.997Z,99185.84
2024-02-24T06:15:50.484Z,99185.09
2024-02-24T06:18:17.180Z,99178.34
2024-02-24T06:20:43.904Z,99183.50
2024-02-24T06:23:10.524Z,99189.47
2024-02-24T06:25:37.062Z,99177.66
2024-02-24T06:28:03.819Z,99189.47
2024-02-24T06:30:30.332Z,99193.03
2024-02-24T06:32:57.018Z,99193.97
2024-02-24T06:35:23.667Z,99187.31
2024-02-24T06:37:50.192Z,99194.31
2024-02-24T06:40:25.663Z,99193.53
2024-02-24T06:42:56.468Z,99201.03
2024-02-24T06:45:23.001Z,99196.03
2024-02-24T06:47:49.628Z,99198.44
2024-02-24T06:50:16.495Z,99202.84
2024-02-24T06:52:43.365Z,99205.56
2024-02-24T06:55:10.067Z,99202.59
2024-02-24T06:57:36.575Z,99201.81
2024-02-24T07:00:03.444Z,99211.13
2024-02-24T07:02:30.053Z,99199.56
2024-02-24T07:04:56.603Z,99208.97
2024-02-24T07:07:23.237Z,99205.72
2024-02-24T07:09:49.747Z,99202.56
2024-02-24T07:12:16.327Z,99205.25
2024-02-24T07:14:43.080Z,99211.28
2024-02-24T07:17:09.859Z,99219.84
2024-02-24T07:19:36.614Z,99219.06
2024-02-24T07:22:03.357Z,99227.72
2024-02-24T07:24:30.106Z,99221.03
2024-02-24T07:26:57.395Z,99227.25
2024-02-24T07:29:24.288Z,99233.31
2024-02-24T07:31:51.032Z,99227.50
2024-02-24T07:34:17.877Z,99241.94
2024-02-24T07:36:44.656Z,99232.78
2024-02-24T07:39:11.415Z,99240.03
2024-02-24T07:41:42.357Z,99243.53
2024-02-24T07:44:09.390Z,99244.72
2024-02-24T07:46:36.173Z,99238.94
2024-02-24T07:49:03.182Z,99259.56
2024-02-24T07:51:30.582Z,99250.47
2024-02-24T07:53:57.485Z,99267.84
2024-02-24T07:56:25.414Z,99257.25
2024-02-24T07:58:52.491Z,99267.72
2024-02-24T08:01:19.380Z,99270.53
2024-02-24T08:03:46.494Z,99268.44
2024-02-24T08:06:13.234Z,99257.69
2024-02-24T08:08:40.007Z,99273.44
2024-02-24T08:11:07.654Z,99271.41
2024-02-24T08:13:40.241Z,99272.44
2024-02-24T08:16:07.698Z,99272.06
2024-02-24T08:18:34.588Z,99269.91
2024-02-24T08:21:07.665Z,99270.22
2024-02-24T08:23:35.602Z,99268.66
2024-02-24T08:26:02.698Z,99280.25
2024-02-24T08:28:29.562Z,99286.53
2024-02-24T08:30:56.967Z,99286.97
2024-02-24T08:33:26.941Z,99275.50
2024-02-24T08:35:54.570Z,99286.69
2024-02-24T08:38:21.553Z,99279.56
2024-02-24T08:40:48.375Z,99285.78
2024-02-24T08:43:15.148Z,99281.06
2024-02-24T08:45:42.910Z,99281.28
2024-02-24T08:48:13.387Z,99285.03
2024-02-24T08:50:41.724Z,99288.63
2024-02-24T08:53:08.637Z,99287.97
2024-02-24T08:55:35.397Z,99289.13
2024-02-24T08:58:02.120Z,99283.44
2024-02-24T09:00:28.834Z,99281.19
2024-02-24T09:02:55.632Z,99279.06
2024-02-24T09:05:22.483Z,99285.22
2024-02-24T09:07:49.356Z,99283.69
2024-02-24T09:10:16.239Z,99277.16
2024-02-24T09:12:42.958Z,99287.34
2024-02-24T09:15:09.936Z,99296.84
2024-02-24T09:17:36.851Z,99296.19
2024-02-24T09:20:04.559Z,99303.16
2024-02-24T09:22:31.296Z,99305.28
2024-02-24T09:24:57.778Z,99301.59
2024-02-24T09:27:24.285Z,99292.91
2024-02-24T09:29:50.881Z,99308.63
2024-02-24T09:32:18.942Z,99307.47
2024-02-24T09:34:46.039Z,99300.31
2024-02-24T09:37:12.720Z,99305.81
2024-02-24T09:39:41.432Z,99308.00
2024-02-24T09:42:10.478Z,99315.91
2024-02-24T09:44:37.685Z,99313.00
2024-02-24T09:47:05.004Z,99309.63
2024-02-24T09:49:32.160Z,99312.41
2024-02-24T09:51:59.999Z,99312.53
2024-02-24T09:54:28.686Z,99311.66
2024-02-24T09:56:56.349Z,99306.81
2024-02-24T09:59:24.071Z,99308.41
2024-02-24T10:01:51.322Z,99313.06
2024-02-24T10:04:18.946Z,99315.66
2024-02-24T10:06:45.664Z,99325.13
2024-02-24T10:09:13.375Z,99320.28
2024-02-24T10:11:40.987Z,99316.09
2024-02-24T10:14:07.980Z,99330.59
2024-02-24T10:16:38.963Z,99317.22
2024-02-24T10:19:06.880Z,99333.38
2024-02-24T10:21:34.810Z,99332.00
2024-02-24T10:24:01.944Z,99321.22
2024-02-24T10:26:28.856Z,99334.13
2024-02-24T10:28:55.505Z,99339.38
2024-02-24T10:31:27.931Z,99337.09
2024-02-24T10:33:56.047Z,99343.81
2024-02-24T10:36:23.363Z,99350.06
2024-02-24T10:38:56.004Z,99335.75
2024-02-24T10:41:25.761Z,99339.28
2024-02-24T10:44:02.557Z,99332.88
2024-02-24T10:46:37.316Z,99332.19
2024-02-24T10:49:05.435Z,99338.53
2024-02-24T10:51:35.655Z,99330.28
2024-02-24T10:54:11.308Z,99334.19
2024-02-24T10:56:38.153Z,99327.63
2024-02-24T10:59:12.028Z,99328.47
2024-02-24T11:01:43.375Z,99335.41
2024-02-24T11:04:12.490Z,99340.41
2024-02-24T11:06:53.548Z,99334.38
2024-02-24T11:09:27.411Z,99341.94
2024-02-24T11:12:04.325Z,99349.13
2024-02-24T11:14:35.975Z,99346.31
2024-02-24T11:17:04.243Z,99352.25
2024-02-24T11:19:45.029Z,99347.78
2024-02-24T11:22:22.203Z,99342.25
2024-02-24T11:25:16.344Z,99344.41
2024-02-24T11:27:43.783Z,99344.00
2024-02-24T11:30:39.487Z,99335.25
2024-02-24T11:33:22.536Z,99336.38
2024-02-24T11:35:51.193Z,99336.75
2024-02-24T11:38:18.573Z,99322.38
2024-02-24T11:40:47.820Z,99332.53
2024-02-24T11:43:15.192Z,99328.31
2024-02-24T11:45:52.549Z,99324.13
2024-02-24T11:48:20.599Z,99336.97
2024-02-24T11:50:48.651Z,99337.69
2024-02-24T11:53:16.921Z,99336.19
2024-02-24T11:55:44.507Z,99341.41
2024-02-24T11:58:11.243Z,99339.91
2024-02-24T12:00:38.917Z,99347.78
2024-02-24T12:03:10.298Z,99339.66
2024-02-24T12:05:37.029Z,99339.31
2024-02-24T12:08:06.140Z,99344.44
2024-02-24T12:10:39.995Z,99342.97
2024-02-24T12:13:09.431Z,99348.94
2024-02-24T12:15:36.685Z,99350.47
2024-02-24T12:18:06.920Z,99358.34
2024-02-24T12:20:41.769Z,99344.69
2024-02-24T12:23:10.257Z,99356.47
2024-02-24T12:25:37.855Z,99362.28
2024-02-24T12:28:05.553Z,99362.16
2024-02-24T12:30:37.171Z,99352.66
2024-02-24T12:33:06.395Z,99360.59
2024-02-24T12:35:33.684Z,99350.34
2024-02-24T12:38:00.264Z,99353.00
2024-02-24T12:40:29.229Z,99353.03
2024-02-24T12:42:56.053Z,99356.59
2024-02-24T12:45:23.131Z,99350.56
2024-02-24T12:47:53.222Z,99353.16
2024-02-24T12:50:21.235Z,99356.59
2024-02-24T12:52:48.677Z,99352.38
2024-02-24T12:55:16.504Z,99349.13
2024-02-24T12:57:43.517Z,99360.31
2024-02-24T13:00:11.775Z,99356.81
2024-02-24T13:02:38.927Z,99362.69
2024-02-24T13:05:06.695Z,99356.75
2024-02-24T13:07:33.695Z,99361.09
2024-02-24T13:10:01.122Z,99366.44
2024-02-24T13:12:27.948Z,99362.06
2024-02-24T13:14:54.575Z,99364.31
2024-02-24T13:17:22.938Z,99360.88
2024-02-24T13:19:52.623Z,99360.81
2024-02-24T13:22:20.020Z,99365.22
2024-02-24T13:24:46.795Z,99357.81
2024-02-24T13:27:13.461Z,99361.44
2024-02-24T13:29:40.066Z,99352.44
2024-02-24T13:32:07.394Z,99360.19
2024-02-24T13:34:34.124Z,99355.28
2024-02-24T13:37:00.867Z,99353.69
2024-02-24T13:39:27.566Z,99355.31
2024-02-24T13:41:55.168Z,99359.38
2024-02-24T13:44:22.333Z,99361.84
2024-02-24T13:46:49.669Z,99352.41
2024-02-24T13:49:19.063Z,99356.44
2024-02-24T13:51:46.742Z,99353.91
2024-02-24T13:54:13.588Z,99356.38
2024-02-24T13:56:40.749Z,99361.38
2024-02-24T13:59:07.963Z,99376.00
2024-02-24T14:01:34.940Z,99376.97
2024-02-24T14:04:03.321Z,99366.00
2024-02-24T14:06:30.139Z,99376.28
2024-02-24T14:08:57.053Z,99372.91
2024-02-24T14:11:25.417Z,99370.91
2024-02-24T14:13:52.290Z,99381.91
2024-02-24T14:16:19.411Z,99380.91
2024-02-24T14:18:46.176Z,99377.97
2024-02-24T14:21:12.836Z,99374.59
2024-02-24T14:23:39.804Z,99381.13
2024-02-24T14:26:06.423Z,99379.22
2024-02-24T14:28:33.019Z,99382.41
2024-02-24T14:30:59.530Z,99378.69
2024-02-24T14:33:26.362Z,99381.09
2024-02-24T14:35:53.127Z,99382.69
2024-02-24T14:38:19.768Z,99385.16
2024-02-24T14:40:50.078Z,99380.94
2024-02-24T14:43:16.978Z,99386.78
2024-02-24T14:45:43.524Z,99394.44
2024-02-24T14:48:10.143Z,99394.38
2024-02-24T14:50:36.809Z,99406.06
2024-02-24T14:53:03.571Z,99425.25
2024-02-24T14:55:30.060Z,99439.91
2024-02-24T14:57:56.866Z,99451.06
2024-02-24T15:00:24.033Z,99460.38
2024-02-24T15:03:04.320Z,99460.41
2024-02-24T15:05:36.725Z,99464.47
2024-02-24T15:08:03.590Z,99465.81
2024-02-24T15:10:30.155Z,99462.00
2024-02-24T15:12:56.671Z,99457.44
2024-02-24T15:15:23.344Z,99458.00
2024-02-24T15:17:53.070Z,99465.47
2024-02-24T15:20:19.970Z,99459.25
2024-02-24T15:22:48.290Z,99468.72
2024-02-24T15:25:15.718Z,99470.13
2024-02-24T15:27:42.310Z,99478.63
2024-02-24T15:30:10.131Z,99481.88
2024-02-24T15:32:36.725Z,99504.38
2024-02-24T15:35:03.654Z,99502.97
2024-02-24T15:40:18.510Z,99507.50
2024-02-24T15:42:45.003Z,99495.16
2024-02-24T15:45:11.522Z,99510.28
2024-02-24T15:47:38.144Z,99500.72
2024-02-24T15:50:05.072Z,99500.78
2024-02-24T15:52:31.596Z,99504.91
2024-02-24T15:54:58.138Z,99497.50
2024-02-24T15:57:24.620Z,99516.22
2024-02-24T15:59:51.389Z,99503.03
2024-02-24T16:02:18.156Z,99514.34
2024-02-24T16:04:45.974Z,99504.91
2024-02-24T16:07:12.742Z,99492.50
2024-02-24T16:09:39.468Z,99518.34
2024-02-24T16:12:06.712Z,99521.03
2024-02-24T16:14:33.527Z,99537.09
2024-02-24T16:17:00.349Z,99540.34
2024-02-24T16:19:27.326Z,99530.72
2024-02-24T16:21:54.046Z,99526.84
2024-02-24T16:24:21.038Z,99559.91
2024-02-24T16:26:51.182Z,99547.09
2024-02-24T16:29:18.020Z,99544.69
2024-02-24T16:31:44.697Z,99545.19
2024-02-24T16:34:11.726Z,99559.44
2024-02-24T16:36:38.573Z,99551.00
2024-02-24T16:39:05.474Z,99578.94
2024-02-24T16:41:32.546Z,99563.75
2024-02-24T16:43:59.249Z,99582.25
2024-02-24T16:46:26.014Z,99569.75
2024-02-24T16:48:53.912Z,99569.22
2024-02-24T16:51:20.705Z,99593.06
2024-02-24T16:53:47.496Z,99588.59
2024-02-24T16:56:14.200Z,99575.16
2024-02-24T16:58:41.489Z,99595.59
2024-02-24T17:01:08.333Z,99604.41
2024-02-24T17:03:35.081Z,99609.31
2024-02-24T17:06:02.527Z,99609.78
2024-02-24T17:08:29.338Z,99601.69
2024-02-24T17:10:56.108Z,99590.97
2024-02-24T17:13:22.902Z,99603.66
2024-02-24T17:15:49.588Z,99612.84
2024-02-24T17:18:18.618Z,99609.75
2024-02-24T17:20:50.375Z,99630.03
2024-02-24T17:23:17.145Z,99620.81
2024-02-24T17:25:43.872Z,99630.97
2024-02-24T17:28:10.901Z,99634.19
2024-02-24T17:30:37.702Z,99648.09
2024-02-24T17:33:05.177Z,99640.13
2024-02-24T17:35:32.250Z,99641.28
2024-02-24T17:37:59.856Z,99646.25
2024-02-24T17:40:26.701Z,99654.28
2024-02-24T17:42:53.389Z,99636.66
2024-02-24T17:45:20.173Z,99647.72
2024-02-24T17:47:46.967Z,99664.44
2024-02-24T17:50:13.721Z,99652.69
2024-02-24T17:52:41.755Z,99665.41
2024-02-24T17:55:08.886Z,99665.09
2024-02-24T17:57:35.587Z,99641.25
2024-02-24T18:00:04.923Z,99680.50
2024-02-24T18:02:31.650Z,99668.28
2024-02-24T18:04:58.338Z,99653.28
2024-02-24T18:07:26.471Z,99655.00
2024-02-24T18:09:53.444Z,99666.69
2024-02-24T18:12:20.271Z,99664.63
2024-02-24T18:14:47.150Z,99665.91
2024-02-24T18:17:13.985Z,99684.88
2024-02-24T18:19:40.735Z,99678.47
2024-02-24T18:22:07.477Z,99683.47
2024-02-24T18:24:34.151Z,99698.66
2024-02-24T18:27:02.649Z,99687.66
2024-02-24T18:29:29.458Z,99677.66
2024-02-24T18:31:56.161Z,99670.56
2024-02-24T18:34:23.003Z,99693.69
2024-02-24T18:36:49.795Z,99660.56
2024-02-24T18:39:16.484Z,99690.44
2024-02-24T18:41:44.036Z,99699.78
2024-02-24T18:44:11.062Z,99689.13
2024-02-24T18:46:37.745Z,99698.38
2024-02-24T18:49:04.564Z,99696.56
2024-02-24T18:51:31.346Z,99701.19
2024-02-24T18:53:58.150Z,99677.63
2024-02-24T18:56:26.306Z,99672.13
2024-02-24T18:58:53.268Z,99694.50
2024-02-24T19:01:20.023Z,99703.66
2024-02-24T19:03:46.883Z,99691.06
2024-02-24T19:06:14.176Z,99706.56
2024-02-24T19:08:40.928Z,99707.06
2024-02-24T19:11:07.676Z,99677.84
2024-02-24T19:13:34.420Z,99700.81
2024-02-24T19:16:01.137Z,99698.97
2024-02-24T19:18:28.005Z,99715.06
2024-02-24T19:20:54.885Z,99708.91
2024-02-24T19:23:22.044Z,99705.94
2024-02-24T19:25:49.350Z,99704.97
2024-02-24T19:28:17.111Z,99700.91
2024-02-24T19:30:43.847Z,99664.59
2024-02-24T19:33:10.794Z,99699.06
2024-02-24T19:35:40.233Z,99705.94
2024-02-24T19:38:08.219Z,99706.50
2024-02-24T19:40:35.040Z,99690.13
2024-02-24T19:43:01.720Z,99717.28
2024-02-24T19:45:28.454Z,99706.00
2024-02-24T19:47:55.247Z,99719.50
2024-02-24T19:50:22.113Z,99728.06
2024-02-24T19:52:48.887Z,99717.50
2024-02-24T19:55:16.153Z,99739.25
2024-02-24T19:57:43.287Z,99721.41
2024-02-24T20:00:10.643Z,99745.63
2024-02-24T20:02:38.042Z,99730.06
2024-02-24T20:05:05.231Z,99757.75
2024-02-24T20:07:32.082Z,99733.44
2024-02-24T20:09:59.004Z,99761.41
2024-02-24T20:12:25.752Z,99762.16
2024-02-24T20:14:52.742Z,99767.53
2024-02-24T20:17:19.607Z,99771.47
2024-02-24T20:19:47.126Z,99785.00
2024-02-24T20:22:14.567Z,99770.22
2024-02-24T20:24:41.414Z,99762.16
2024-02-24T20:27:08.511Z,99770.41
2024-02-24T20:29:35.267Z,99780.53
2024-02-24T20:32:02.030Z,99775.34
2024-02-24T20:34:28.880Z,99757.78
2024-02-24T20:36:55.670Z,99742.34
2024-02-24T20:39:22.357Z,99765.94
2024-02-24T20:41:49.106Z,99757.34
2024-02-24T20:44:18.334Z,99780.69
2024-02-24T20:46:45.866Z,99786.56
2024-02-24T20:49:13.981Z,99743.03
2024-02-24T20:51:40.831Z,99791.69
2024-02-24T20:54:07.716Z,99770.88
2024-02-24T20:56:34.545Z,99777.81
2024-02-24T20:59:01.229Z,99780.47
2024-02-24T21:01:28.368Z,99784.06
2024-02-24T21:03:55.216Z,99783.00
2024-02-24T21:06:22.051Z,99780.75
2024-02-24T21:08:48.890Z,99774.78
2024-02-24T21:11:15.786Z,99765.25
2024-02-24T21:13:42.470Z,99783.88
2024-02-24T21:16:09.487Z,99783.59
2024-02-24T21:18:36.505Z,99779.94
2024-02-24T21:21:03.487Z,99777.06
2024-02-24T21:23:30.306Z,99756.47
2024-02-24T21:25:57.029Z,99772.59
2024-02-24T21:28:23.805Z,99766.19
2024-02-24T21:30:50.643Z,99785.63
2024-02-24T21:33:17.849Z,99786.03
2024-02-24T21:35:44.816Z,99769.41
2024-02-24T21:41:00.110Z,99776.16
2024-02-24T21:43:26.873Z,99783.84
2024-02-24T21:45:53.584Z,99774.78
2024-02-24T21:48:22.251Z,99784.22
2024-02-24T21:50:49.913Z,99780.00
2024-02-24T21:53:16.647Z,99789.34
2024-02-24T21:55:43.321Z,99782.78
2024-02-24T21:58:10.010Z,99776.41
2024-02-24T22:00:37.072Z,99782.69
2024-02-24T22:03:04.922Z,99785.00
2024-02-24T22:05:31.730Z,99782.03
2024-02-24T22:07:58.470Z,99797.28
2024-02-24T22:10:25.346Z,99793.88
2024-02-24T22:12:52.049Z,99797.94
2024-02-24T22:15:19.623Z,99786.75
2024-02-24T22:17:47.295Z,99791.88
2024-02-24T22:20:14.393Z,99800.44
2024-02-24T22:22:41.120Z,99805.28
2024-02-24T22:25:08.696Z,99796.78
2024-02-24T22:27:35.731Z,99807.91
2024-02-24T22:30:08.999Z,99803.63
2024-02-24T22:32:43.233Z,99808.06
2024-02-24T22:35:10.254Z,99809.03
2024-02-24T22:37:38.108Z,99801.59
2024-02-24T22:40:05.445Z,99806.63
2024-02-24T22:42:34.372Z,99805.78
2024-02-24T22:45:02.689Z,99803.44
2024-02-24T22:47:30.022Z,99800.13
2024-02-24T22:49:56.959Z,99806.91
2024-02-24T22:52:23.795Z,99808.91
2024-02-24T22:54:50.945Z,99818.25
2024-02-24T22:57:17.769Z,99816.53
2024-02-24T22:59:44.553Z,99817.41
2024-02-24T23:02:11.285Z,99814.19
2024-02-24T23:04:38.530Z,99821.94
2024-02-24T23:07:05.607Z,99826.38
2024-02-24T23:09:32.377Z,99825.41
2024-02-24T23:11:59.187Z,99820.88
2024-02-24T23:14:26.062Z,99815.69
2024-02-24T23:16:52.759Z,99821.56
2024-02-24T23:19:21.079Z,99818.66
2024-02-24T23:21:47.951Z,99829.38
2024-02-24T23:24:14.689Z,99830.66
2024-02-24T23:26:41.442Z,99826.41
2024-02-24T23:29:08.467Z,99825.94
2024-02-24T23:31:35.236Z,99821.19
2024-02-24T23:34:02.212Z,99822.47
2024-02-24T23:36:29.137Z,99816.97
2024-02-24T23:38:55.903Z,99826.44
2024-02-24T23:41:22.642Z,99830.59
2024-02-24T23:43:49.344Z,99831.91
2024-02-24T23:46:16.062Z,99819.59
2024-02-24T23:48:44.726Z,99831.25
2024-02-24T23:51:11.700Z,99826.03
2024-02-24T23:53:39.423Z,99809.31
2024-02-24T23:56:06.539Z,99811.84
2024-02-24T23:58:33.233Z,99821.56
